sensor_id;sensor_type;location;lat;lon;timestamp;P1;durP1;ratioP1;P2;durP2;ratioP2
11255;SDS011;5685;52.384;13.420;2023-06-22T00:02:01;76.93;;;43.17;;
11255;SDS011;5685;52.384;13.420;2023-06-22T00:05:04;76.20;;;42.57;;
11255;SDS011;5685;52.384;13.420;2023-06-22T00:08:07;76.70;;;42.87;;
11255;SDS011;5685;52.384;13.420;2023-06-22T00:11:11;76.67;;;42.73;;
11255;SDS011;5685;52.384;13.420;2023-06-22T00:14:14;76.37;;;42.87;;
11255;SDS011;5685;52.384;13.420;2023-06-22T00:17:16;76.60;;;42.73;;
11255;SDS011;5685;52.384;13.420;2023-06-22T00:20:19;76.97;;;42.83;;
11255;SDS011;5685;52.384;13.420;2023-06-22T00:23:23;76.43;;;42.53;;
11255;SDS011;5685;52.384;13.420;2023-06-22T00:26:27;77.23;;;43.00;;
11255;SDS011;5685;52.384;13.420;2023-06-22T00:29:29;76.73;;;42.77;;
11255;SDS011;5685;52.384;13.420;2023-06-22T00:32:32;76.73;;;42.83;;
11255;SDS011;5685;52.384;13.420;2023-06-22T00:35:34;76.50;;;42.83;;
11255;SDS011;5685;52.384;13.420;2023-06-22T00:38:37;76.50;;;42.60;;
11255;SDS011;5685;52.384;13.420;2023-06-22T00:41:42;76.07;;;42.33;;
11255;SDS011;5685;52.384;13.420;2023-06-22T00:44:44;76.57;;;42.53;;
11255;SDS011;5685;52.384;13.420;2023-06-22T00:47:47;75.93;;;42.37;;
11255;SDS011;5685;52.384;13.420;2023-06-22T00:50:49;76.90;;;42.80;;
11255;SDS011;5685;52.384;13.420;2023-06-22T00:53:53;77.00;;;42.87;;
11255;SDS011;5685;52.384;13.420;2023-06-22T00:56:58;76.87;;;42.90;;
11255;SDS011;5685;52.384;13.420;2023-06-22T01:00:00;76.63;;;42.63;;
11255;SDS011;5685;52.384;13.420;2023-06-22T01:03:11;76.07;;;42.43;;
11255;SDS011;5685;52.384;13.420;2023-06-22T01:06:15;76.13;;;42.47;;
11255;SDS011;5685;52.384;13.420;2023-06-22T01:09:22;76.80;;;42.73;;
11255;SDS011;5685;52.384;13.420;2023-06-22T01:12:30;76.90;;;42.80;;
11255;SDS011;5685;52.384;13.420;2023-06-22T01:15:36;77.47;;;43.10;;
11255;SDS011;5685;52.384;13.420;2023-06-22T01:18:41;76.60;;;42.67;;
11255;SDS011;5685;52.384;13.420;2023-06-22T01:21:45;76.93;;;42.83;;
11255;SDS011;5685;52.384;13.420;2023-06-22T01:24:51;77.00;;;42.73;;
11255;SDS011;5685;52.384;13.420;2023-06-22T01:28:01;76.13;;;42.43;;
11255;SDS011;5685;52.384;13.420;2023-06-22T01:31:08;77.10;;;42.90;;
11255;SDS011;5685;52.384;13.420;2023-06-22T01:34:11;76.50;;;42.60;;
11255;SDS011;5685;52.384;13.420;2023-06-22T01:37:14;76.63;;;42.77;;
11255;SDS011;5685;52.384;13.420;2023-06-22T01:40:17;76.30;;;42.73;;
11255;SDS011;5685;52.384;13.420;2023-06-22T01:43:22;75.67;;;42.40;;
11255;SDS011;5685;52.384;13.420;2023-06-22T01:46:27;76.13;;;42.70;;
11255;SDS011;5685;52.384;13.420;2023-06-22T01:49:30;76.37;;;42.93;;
11255;SDS011;5685;52.384;13.420;2023-06-22T01:52:33;76.30;;;42.70;;
11255;SDS011;5685;52.384;13.420;2023-06-22T01:55:35;76.60;;;43.03;;
11255;SDS011;5685;52.384;13.420;2023-06-22T01:58:40;76.83;;;43.07;;
11255;SDS011;5685;52.384;13.420;2023-06-22T02:01:50;77.23;;;43.30;;
11255;SDS011;5685;52.384;13.420;2023-06-22T02:04:57;77.20;;;43.27;;
11255;SDS011;5685;52.384;13.420;2023-06-22T02:08:02;76.07;;;42.83;;
11255;SDS011;5685;52.384;13.420;2023-06-22T02:11:09;76.10;;;42.73;;
11255;SDS011;5685;52.384;13.420;2023-06-22T02:14:12;76.70;;;43.23;;
11255;SDS011;5685;52.384;13.420;2023-06-22T02:17:17;75.67;;;42.90;;
11255;SDS011;5685;52.384;13.420;2023-06-22T02:20:19;75.93;;;42.97;;
11255;SDS011;5685;52.384;13.420;2023-06-22T02:23:22;76.90;;;43.20;;
11255;SDS011;5685;52.384;13.420;2023-06-22T02:26:25;76.30;;;43.03;;
11255;SDS011;5685;52.384;13.420;2023-06-22T02:29:27;77.20;;;43.60;;
11255;SDS011;5685;52.384;13.420;2023-06-22T02:32:32;76.53;;;43.10;;
11255;SDS011;5685;52.384;13.420;2023-06-22T02:35:35;76.37;;;43.07;;
11255;SDS011;5685;52.384;13.420;2023-06-22T02:38:37;75.97;;;42.87;;
11255;SDS011;5685;52.384;13.420;2023-06-22T02:41:48;75.97;;;42.93;;
11255;SDS011;5685;52.384;13.420;2023-06-22T02:44:51;76.60;;;43.13;;
11255;SDS011;5685;52.384;13.420;2023-06-22T02:47:55;76.80;;;43.37;;
11255;SDS011;5685;52.384;13.420;2023-06-22T02:50:57;76.27;;;43.10;;
11255;SDS011;5685;52.384;13.420;2023-06-22T02:54:00;76.93;;;43.37;;
11255;SDS011;5685;52.384;13.420;2023-06-22T02:57:03;76.53;;;43.13;;
11255;SDS011;5685;52.384;13.420;2023-06-22T03:00:06;76.13;;;43.07;;
11255;SDS011;5685;52.384;13.420;2023-06-22T03:03:19;76.23;;;43.00;;
11255;SDS011;5685;52.384;13.420;2023-06-22T03:06:23;76.47;;;43.13;;
11255;SDS011;5685;52.384;13.420;2023-06-22T03:09:28;76.40;;;43.07;;
11255;SDS011;5685;52.384;13.420;2023-06-22T03:12:31;76.80;;;43.40;;
11255;SDS011;5685;52.384;13.420;2023-06-22T03:15:33;76.47;;;43.23;;
11255;SDS011;5685;52.384;13.420;2023-06-22T03:18:37;76.87;;;43.50;;
11255;SDS011;5685;52.384;13.420;2023-06-22T03:21:40;76.40;;;43.07;;
11255;SDS011;5685;52.384;13.420;2023-06-22T03:24:42;76.87;;;43.43;;
11255;SDS011;5685;52.384;13.420;2023-06-22T03:27:45;77.20;;;43.60;;
11255;SDS011;5685;52.384;13.420;2023-06-22T03:30:48;76.77;;;43.37;;
11255;SDS011;5685;52.384;13.420;2023-06-22T03:33:52;76.10;;;43.07;;
11255;SDS011;5685;52.384;13.420;2023-06-22T03:36:54;75.57;;;42.87;;
11255;SDS011;5685;52.384;13.420;2023-06-22T03:39:57;75.83;;;43.20;;
11255;SDS011;5685;52.384;13.420;2023-06-22T03:43:00;76.23;;;43.27;;
11255;SDS011;5685;52.384;13.420;2023-06-22T03:46:02;76.27;;;43.40;;
11255;SDS011;5685;52.384;13.420;2023-06-22T03:49:06;75.70;;;43.00;;
11255;SDS011;5685;52.384;13.420;2023-06-22T03:52:09;75.83;;;43.07;;
11255;SDS011;5685;52.384;13.420;2023-06-22T03:55:12;75.97;;;43.13;;
11255;SDS011;5685;52.384;13.420;2023-06-22T03:58:14;75.47;;;42.77;;
11255;SDS011;5685;52.384;13.420;2023-06-22T04:01:18;76.27;;;43.30;;
11255;SDS011;5685;52.384;13.420;2023-06-22T04:04:23;75.73;;;42.70;;
11255;SDS011;5685;52.384;13.420;2023-06-22T04:07:25;77.17;;;44.03;;
11255;SDS011;5685;52.384;13.420;2023-06-22T04:10:28;76.53;;;43.60;;
11255;SDS011;5685;52.384;13.420;2023-06-22T04:13:30;76.30;;;43.23;;
11255;SDS011;5685;52.384;13.420;2023-06-22T04:16:33;76.23;;;43.10;;
11255;SDS011;5685;52.384;13.420;2023-06-22T04:19:37;76.83;;;43.43;;
11255;SDS011;5685;52.384;13.420;2023-06-22T04:22:39;76.57;;;43.40;;
11255;SDS011;5685;52.384;13.420;2023-06-22T04:25:42;76.63;;;43.40;;
11255;SDS011;5685;52.384;13.420;2023-06-22T04:28:45;76.00;;;43.20;;
11255;SDS011;5685;52.384;13.420;2023-06-22T04:31:51;76.03;;;43.20;;
11255;SDS011;5685;52.384;13.420;2023-06-22T04:34:57;76.20;;;43.27;;
11255;SDS011;5685;52.384;13.420;2023-06-22T04:38:00;76.37;;;43.27;;
11255;SDS011;5685;52.384;13.420;2023-06-22T04:41:03;75.90;;;43.10;;
11255;SDS011;5685;52.384;13.420;2023-06-22T04:44:06;75.90;;;43.10;;
11255;SDS011;5685;52.384;13.420;2023-06-22T04:47:09;76.83;;;43.57;;
11255;SDS011;5685;52.384;13.420;2023-06-22T04:50:13;76.33;;;43.27;;
11255;SDS011;5685;52.384;13.420;2023-06-22T04:53:17;77.00;;;43.57;;
11255;SDS011;5685;52.384;13.420;2023-06-22T04:56:19;76.33;;;43.37;;
11255;SDS011;5685;52.384;13.420;2023-06-22T04:59:28;76.03;;;43.07;;
11255;SDS011;5685;52.384;13.420;2023-06-22T05:02:31;76.27;;;43.20;;
11255;SDS011;5685;52.384;13.420;2023-06-22T05:05:35;76.33;;;43.20;;
11255;SDS011;5685;52.384;13.420;2023-06-22T05:08:38;76.00;;;42.90;;
11255;SDS011;5685;52.384;13.420;2023-06-22T05:11:40;76.30;;;43.23;;
11255;SDS011;5685;52.384;13.420;2023-06-22T05:14:43;76.10;;;42.93;;
11255;SDS011;5685;52.384;13.420;2023-06-22T05:17:46;75.83;;;42.73;;
11255;SDS011;5685;52.384;13.420;2023-06-22T05:20:50;76.50;;;43.10;;
11255;SDS011;5685;52.384;13.420;2023-06-22T05:23:53;75.80;;;42.70;;
11255;SDS011;5685;52.384;13.420;2023-06-22T05:27:00;75.93;;;42.73;;
11255;SDS011;5685;52.384;13.420;2023-06-22T05:30:02;76.40;;;42.93;;
11255;SDS011;5685;52.384;13.420;2023-06-22T05:33:05;76.07;;;42.70;;
11255;SDS011;5685;52.384;13.420;2023-06-22T05:36:10;75.97;;;42.77;;
11255;SDS011;5685;52.384;13.420;2023-06-22T05:39:12;76.27;;;42.90;;
11255;SDS011;5685;52.384;13.420;2023-06-22T05:42:16;76.13;;;42.80;;
11255;SDS011;5685;52.384;13.420;2023-06-22T05:45:18;75.90;;;42.57;;
11255;SDS011;5685;52.384;13.420;2023-06-22T05:48:21;76.40;;;42.90;;
11255;SDS011;5685;52.384;13.420;2023-06-22T05:51:25;75.90;;;42.43;;
11255;SDS011;5685;52.384;13.420;2023-06-22T05:54:28;75.77;;;42.67;;
11255;SDS011;5685;52.384;13.420;2023-06-22T05:57:31;75.63;;;42.47;;
11255;SDS011;5685;52.384;13.420;2023-06-22T06:00:33;76.17;;;42.77;;
11255;SDS011;5685;52.384;13.420;2023-06-22T06:03:36;75.90;;;42.53;;
11255;SDS011;5685;52.384;13.420;2023-06-22T06:06:42;76.03;;;42.67;;
11255;SDS011;5685;52.384;13.420;2023-06-22T06:09:47;75.73;;;42.40;;
11255;SDS011;5685;52.384;13.420;2023-06-22T06:12:49;75.97;;;42.60;;
11255;SDS011;5685;52.384;13.420;2023-06-22T06:15:52;75.63;;;42.73;;
11255;SDS011;5685;52.384;13.420;2023-06-22T06:18:55;75.90;;;42.70;;
11255;SDS011;5685;52.384;13.420;2023-06-22T06:22:00;76.30;;;43.03;;
11255;SDS011;5685;52.384;13.420;2023-06-22T06:25:02;75.90;;;42.83;;
11255;SDS011;5685;52.384;13.420;2023-06-22T06:28:06;76.37;;;43.10;;
11255;SDS011;5685;52.384;13.420;2023-06-22T06:31:08;75.27;;;42.63;;
11255;SDS011;5685;52.384;13.420;2023-06-22T06:34:12;76.23;;;43.07;;
11255;SDS011;5685;52.384;13.420;2023-06-22T06:37:16;76.77;;;43.27;;
11255;SDS011;5685;52.384;13.420;2023-06-22T06:40:19;76.00;;;42.97;;
11255;SDS011;5685;52.384;13.420;2023-06-22T06:43:21;76.07;;;43.07;;
11255;SDS011;5685;52.384;13.420;2023-06-22T06:46:24;75.83;;;42.80;;
11255;SDS011;5685;52.384;13.420;2023-06-22T06:49:27;76.17;;;42.93;;
11255;SDS011;5685;52.384;13.420;2023-06-22T06:52:31;76.47;;;43.23;;
11255;SDS011;5685;52.384;13.420;2023-06-22T06:55:34;75.87;;;42.93;;
11255;SDS011;5685;52.384;13.420;2023-06-22T06:58:36;76.30;;;43.27;;
11255;SDS011;5685;52.384;13.420;2023-06-22T07:01:40;76.67;;;43.13;;
11255;SDS011;5685;52.384;13.420;2023-06-22T07:04:44;76.00;;;42.80;;
11255;SDS011;5685;52.384;13.420;2023-06-22T07:07:48;76.07;;;43.00;;
11255;SDS011;5685;52.384;13.420;2023-06-22T07:10:51;75.73;;;42.67;;
11255;SDS011;5685;52.384;13.420;2023-06-22T07:13:54;76.90;;;43.33;;
11255;SDS011;5685;52.384;13.420;2023-06-22T07:16:56;76.50;;;43.27;;
11255;SDS011;5685;52.384;13.420;2023-06-22T07:20:00;76.50;;;43.20;;
11255;SDS011;5685;52.384;13.420;2023-06-22T07:23:09;76.63;;;43.27;;
11255;SDS011;5685;52.384;13.420;2023-06-22T07:26:12;76.63;;;43.30;;
11255;SDS011;5685;52.384;13.420;2023-06-22T07:29:16;76.67;;;43.43;;
11255;SDS011;5685;52.384;13.420;2023-06-22T07:32:20;76.27;;;43.23;;
11255;SDS011;5685;52.384;13.420;2023-06-22T07:35:22;76.00;;;43.13;;
11255;SDS011;5685;52.384;13.420;2023-06-22T07:38:26;76.60;;;43.33;;
11255;SDS011;5685;52.384;13.420;2023-06-22T07:41:29;75.83;;;43.03;;
11255;SDS011;5685;52.384;13.420;2023-06-22T07:44:32;75.63;;;42.90;;
11255;SDS011;5685;52.384;13.420;2023-06-22T07:47:34;76.10;;;43.17;;
11255;SDS011;5685;52.384;13.420;2023-06-22T07:50:37;76.07;;;43.07;;
11255;SDS011;5685;52.384;13.420;2023-06-22T07:53:41;75.87;;;43.10;;
11255;SDS011;5685;52.384;13.420;2023-06-22T07:56:45;76.33;;;43.33;;
11255;SDS011;5685;52.384;13.420;2023-06-22T07:59:48;75.17;;;42.73;;
11255;SDS011;5685;52.384;13.420;2023-06-22T08:02:51;75.27;;;42.87;;
11255;SDS011;5685;52.384;13.420;2023-06-22T08:05:53;76.00;;;43.10;;
11255;SDS011;5685;52.384;13.420;2023-06-22T08:08:57;75.90;;;43.10;;
11255;SDS011;5685;52.384;13.420;2023-06-22T08:12:00;75.87;;;43.10;;
11255;SDS011;5685;52.384;13.420;2023-06-22T08:15:03;75.83;;;43.00;;
11255;SDS011;5685;52.384;13.420;2023-06-22T08:18:07;75.93;;;43.17;;
11255;SDS011;5685;52.384;13.420;2023-06-22T08:21:10;76.47;;;43.30;;
11255;SDS011;5685;52.384;13.420;2023-06-22T08:24:14;75.70;;;42.97;;
11255;SDS011;5685;52.384;13.420;2023-06-22T08:27:16;76.67;;;43.47;;
11255;SDS011;5685;52.384;13.420;2023-06-22T08:30:21;75.70;;;42.97;;
11255;SDS011;5685;52.384;13.420;2023-06-22T08:33:23;75.80;;;42.93;;
11255;SDS011;5685;52.384;13.420;2023-06-22T08:36:28;75.97;;;43.17;;
11255;SDS011;5685;52.384;13.420;2023-06-22T08:39:34;76.07;;;43.17;;
11255;SDS011;5685;52.384;13.420;2023-06-22T08:42:37;76.17;;;43.13;;
11255;SDS011;5685;52.384;13.420;2023-06-22T08:45:41;75.20;;;42.80;;
11255;SDS011;5685;52.384;13.420;2023-06-22T08:48:43;76.07;;;43.23;;
11255;SDS011;5685;52.384;13.420;2023-06-22T08:51:46;76.40;;;43.37;;
11255;SDS011;5685;52.384;13.420;2023-06-22T08:54:51;76.23;;;43.20;;
11255;SDS011;5685;52.384;13.420;2023-06-22T08:57:53;75.87;;;43.17;;
11255;SDS011;5685;52.384;13.420;2023-06-22T09:00:56;76.07;;;43.20;;
11255;SDS011;5685;52.384;13.420;2023-06-22T09:04:00;76.10;;;43.17;;
11255;SDS011;5685;52.384;13.420;2023-06-22T09:07:05;76.47;;;43.40;;
11255;SDS011;5685;52.384;13.420;2023-06-22T09:10:09;75.83;;;43.17;;
11255;SDS011;5685;52.384;13.420;2023-06-22T09:13:12;76.23;;;43.33;;
11255;SDS011;5685;52.384;13.420;2023-06-22T09:16:15;76.50;;;43.50;;
11255;SDS011;5685;52.384;13.420;2023-06-22T09:19:18;76.60;;;43.53;;
11255;SDS011;5685;52.384;13.420;2023-06-22T09:22:20;76.47;;;43.30;;
11255;SDS011;5685;52.384;13.420;2023-06-22T09:25:25;76.60;;;43.50;;
11255;SDS011;5685;52.384;13.420;2023-06-22T09:28:27;76.33;;;43.30;;
11255;SDS011;5685;52.384;13.420;2023-06-22T09:31:30;75.90;;;43.10;;
11255;SDS011;5685;52.384;13.420;2023-06-22T09:34:32;76.27;;;43.30;;
11255;SDS011;5685;52.384;13.420;2023-06-22T09:37:35;76.60;;;43.47;;
11255;SDS011;5685;52.384;13.420;2023-06-22T09:40:39;75.87;;;43.13;;
11255;SDS011;5685;52.384;13.420;2023-06-22T09:43:42;76.30;;;43.17;;
11255;SDS011;5685;52.384;13.420;2023-06-22T09:46:44;76.23;;;43.30;;
11255;SDS011;5685;52.384;13.420;2023-06-22T09:49:47;75.73;;;43.13;;
11255;SDS011;5685;52.384;13.420;2023-06-22T09:52:50;75.90;;;43.07;;
11255;SDS011;5685;52.384;13.420;2023-06-22T09:55:56;75.20;;;42.83;;
11255;SDS011;5685;52.384;13.420;2023-06-22T09:58:59;75.57;;;43.03;;
11255;SDS011;5685;52.384;13.420;2023-06-22T10:02:02;75.50;;;43.00;;
11255;SDS011;5685;52.384;13.420;2023-06-22T10:05:04;75.93;;;43.07;;
11255;SDS011;5685;52.384;13.420;2023-06-22T10:08:08;75.17;;;42.73;;
11255;SDS011;5685;52.384;13.420;2023-06-22T10:11:12;75.40;;;42.93;;
11255;SDS011;5685;52.384;13.420;2023-06-22T10:14:15;75.80;;;43.20;;
11255;SDS011;5685;52.384;13.420;2023-06-22T10:17:17;76.33;;;43.43;;
11255;SDS011;5685;52.384;13.420;2023-06-22T10:20:20;76.07;;;43.37;;
11255;SDS011;5685;52.384;13.420;2023-06-22T10:23:23;75.90;;;43.00;;
11255;SDS011;5685;52.384;13.420;2023-06-22T10:26:27;75.97;;;43.17;;
11255;SDS011;5685;52.384;13.420;2023-06-22T10:29:29;75.83;;;43.07;;
11255;SDS011;5685;52.384;13.420;2023-06-22T10:32:32;76.40;;;43.47;;
11255;SDS011;5685;52.384;13.420;2023-06-22T10:35:34;76.17;;;43.30;;
11255;SDS011;5685;52.384;13.420;2023-06-22T10:38:38;76.07;;;43.23;;
11255;SDS011;5685;52.384;13.420;2023-06-22T10:41:42;76.20;;;43.30;;
11255;SDS011;5685;52.384;13.420;2023-06-22T10:44:45;76.40;;;43.47;;
11255;SDS011;5685;52.384;13.420;2023-06-22T10:47:47;76.40;;;43.50;;
11255;SDS011;5685;52.384;13.420;2023-06-22T10:50:50;76.37;;;43.47;;
11255;SDS011;5685;52.384;13.420;2023-06-22T10:53:53;75.97;;;43.27;;
11255;SDS011;5685;52.384;13.420;2023-06-22T10:56:57;76.63;;;43.73;;
11255;SDS011;5685;52.384;13.420;2023-06-22T11:00:00;76.20;;;43.33;;
11255;SDS011;5685;52.384;13.420;2023-06-22T11:03:04;76.03;;;43.40;;
11255;SDS011;5685;52.384;13.420;2023-06-22T11:06:07;75.83;;;43.13;;
11255;SDS011;5685;52.384;13.420;2023-06-22T11:09:09;76.00;;;43.20;;
11255;SDS011;5685;52.384;13.420;2023-06-22T11:12:13;75.70;;;43.07;;
11255;SDS011;5685;52.384;13.420;2023-06-22T11:15:16;76.77;;;43.73;;
11255;SDS011;5685;52.384;13.420;2023-06-22T11:18:19;76.37;;;43.40;;
11255;SDS011;5685;52.384;13.420;2023-06-22T11:21:23;76.17;;;43.40;;
11255;SDS011;5685;52.384;13.420;2023-06-22T11:24:25;76.57;;;43.60;;
11255;SDS011;5685;52.384;13.420;2023-06-22T11:27:29;76.30;;;43.40;;
11255;SDS011;5685;52.384;13.420;2023-06-22T11:30:32;76.40;;;43.50;;
11255;SDS011;5685;52.384;13.420;2023-06-22T11:33:35;76.60;;;43.63;;
11255;SDS011;5685;52.384;13.420;2023-06-22T11:36:37;76.77;;;43.67;;
11255;SDS011;5685;52.384;13.420;2023-06-22T11:39:41;76.07;;;43.40;;
11255;SDS011;5685;52.384;13.420;2023-06-22T11:42:45;75.93;;;43.23;;
11255;SDS011;5685;52.384;13.420;2023-06-22T11:45:47;76.03;;;43.43;;
11255;SDS011;5685;52.384;13.420;2023-06-22T11:48:50;75.93;;;43.27;;
11255;SDS011;5685;52.384;13.420;2023-06-22T11:51:53;75.83;;;43.17;;
11255;SDS011;5685;52.384;13.420;2023-06-22T11:54:55;75.73;;;43.27;;
11255;SDS011;5685;52.384;13.420;2023-06-22T11:58:01;75.83;;;43.30;;
11255;SDS011;5685;52.384;13.420;2023-06-22T12:01:05;77.03;;;43.80;;
11255;SDS011;5685;52.384;13.420;2023-06-22T12:04:07;76.03;;;43.40;;
11255;SDS011;5685;52.384;13.420;2023-06-22T12:07:11;76.23;;;43.50;;
11255;SDS011;5685;52.384;13.420;2023-06-22T12:10:14;76.47;;;43.63;;
11255;SDS011;5685;52.384;13.420;2023-06-22T12:13:18;76.33;;;43.57;;
11255;SDS011;5685;52.384;13.420;2023-06-22T12:16:21;76.03;;;43.37;;
11255;SDS011;5685;52.384;13.420;2023-06-22T12:19:24;76.53;;;43.70;;
11255;SDS011;5685;52.384;13.420;2023-06-22T12:22:27;76.47;;;43.67;;
11255;SDS011;5685;52.384;13.420;2023-06-22T12:25:29;76.03;;;43.57;;
11255;SDS011;5685;52.384;13.420;2023-06-22T12:28:33;76.37;;;43.60;;
11255;SDS011;5685;52.384;13.420;2023-06-22T12:31:36;75.60;;;43.13;;
11255;SDS011;5685;52.384;13.420;2023-06-22T12:34:39;75.93;;;43.43;;
11255;SDS011;5685;52.384;13.420;2023-06-22T12:37:42;75.67;;;43.20;;
11255;SDS011;5685;52.384;13.420;2023-06-22T12:40:45;75.63;;;43.17;;
11255;SDS011;5685;52.384;13.420;2023-06-22T12:43:51;76.23;;;43.57;;
11255;SDS011;5685;52.384;13.420;2023-06-22T12:46:53;76.80;;;43.87;;
11255;SDS011;5685;52.384;13.420;2023-06-22T12:49:56;76.63;;;43.70;;
11255;SDS011;5685;52.384;13.420;2023-06-22T12:52:58;76.30;;;43.50;;
11255;SDS011;5685;52.384;13.420;2023-06-22T12:56:03;76.17;;;43.47;;
11255;SDS011;5685;52.384;13.420;2023-06-22T12:59:07;76.67;;;43.87;;
11255;SDS011;5685;52.384;13.420;2023-06-22T13:02:09;76.80;;;43.90;;
11255;SDS011;5685;52.384;13.420;2023-06-22T13:05:12;76.20;;;43.60;;
11255;SDS011;5685;52.384;13.420;2023-06-22T13:08:15;76.03;;;43.53;;
11255;SDS011;5685;52.384;13.420;2023-06-22T13:11:17;76.50;;;43.73;;
11255;SDS011;5685;52.384;13.420;2023-06-22T13:14:21;77.07;;;44.10;;
11255;SDS011;5685;52.384;13.420;2023-06-22T13:17:24;77.00;;;43.90;;
11255;SDS011;5685;52.384;13.420;2023-06-22T13:20:28;75.57;;;43.43;;
11255;SDS011;5685;52.384;13.420;2023-06-22T13:23:30;75.40;;;43.47;;
11255;SDS011;5685;52.384;13.420;2023-06-22T13:26:34;76.20;;;43.57;;
11255;SDS011;5685;52.384;13.420;2023-06-22T13:29:38;76.97;;;44.07;;
11255;SDS011;5685;52.384;13.420;2023-06-22T13:32:40;75.77;;;43.40;;
11255;SDS011;5685;52.384;13.420;2023-06-22T13:35:43;76.57;;;43.73;;
11255;SDS011;5685;52.384;13.420;2023-06-22T13:38:46;77.00;;;44.10;;
11255;SDS011;5685;52.384;13.420;2023-06-22T13:41:48;76.43;;;43.70;;
11255;SDS011;5685;52.384;13.420;2023-06-22T13:44:52;76.33;;;43.80;;
11255;SDS011;5685;52.384;13.420;2023-06-22T13:47:55;76.23;;;43.73;;
11255;SDS011;5685;52.384;13.420;2023-06-22T13:50:58;76.40;;;44.10;;
11255;SDS011;5685;52.384;13.420;2023-06-22T13:54:00;76.67;;;43.97;;
11255;SDS011;5685;52.384;13.420;2023-06-22T13:57:03;77.00;;;44.03;;
11255;SDS011;5685;52.384;13.420;2023-06-22T14:00:08;76.23;;;43.73;;
11255;SDS011;5685;52.384;13.420;2023-06-22T14:03:12;75.87;;;43.73;;
11255;SDS011;5685;52.384;13.420;2023-06-22T14:06:16;76.77;;;44.00;;
11255;SDS011;5685;52.384;13.420;2023-06-22T14:09:19;76.57;;;44.00;;
11255;SDS011;5685;52.384;13.420;2023-06-22T14:12:21;76.17;;;43.73;;
11255;SDS011;5685;52.384;13.420;2023-06-22T14:15:25;76.37;;;43.97;;
11255;SDS011;5685;52.384;13.420;2023-06-22T14:18:28;76.37;;;43.93;;
11255;SDS011;5685;52.384;13.420;2023-06-22T14:21:30;76.10;;;43.70;;
11255;SDS011;5685;52.384;13.420;2023-06-22T14:24:33;76.47;;;43.77;;
11255;SDS011;5685;52.384;13.420;2023-06-22T14:27:36;76.60;;;44.07;;
11255;SDS011;5685;52.384;13.420;2023-06-22T14:30:40;75.33;;;43.40;;
11255;SDS011;5685;52.384;13.420;2023-06-22T14:33:43;76.37;;;43.80;;
11255;SDS011;5685;52.384;13.420;2023-06-22T14:36:46;76.23;;;43.90;;
11255;SDS011;5685;52.384;13.420;2023-06-22T14:39:49;76.43;;;43.80;;
11255;SDS011;5685;52.384;13.420;2023-06-22T14:42:51;76.03;;;43.97;;
11255;SDS011;5685;52.384;13.420;2023-06-22T14:45:58;76.57;;;44.10;;
11255;SDS011;5685;52.384;13.420;2023-06-22T14:49:00;76.40;;;44.10;;
11255;SDS011;5685;52.384;13.420;2023-06-22T14:52:03;76.50;;;44.13;;
11255;SDS011;5685;52.384;13.420;2023-06-22T14:55:06;76.60;;;43.97;;
11255;SDS011;5685;52.384;13.420;2023-06-22T14:58:09;76.50;;;44.03;;
11255;SDS011;5685;52.384;13.420;2023-06-22T15:01:16;76.00;;;43.80;;
11255;SDS011;5685;52.384;13.420;2023-06-22T15:04:19;75.90;;;43.77;;
11255;SDS011;5685;52.384;13.420;2023-06-22T15:07:22;76.67;;;44.23;;
11255;SDS011;5685;52.384;13.420;2023-06-22T15:10:24;76.47;;;44.20;;
11255;SDS011;5685;52.384;13.420;2023-06-22T15:13:27;75.17;;;43.63;;
11255;SDS011;5685;52.384;13.420;2023-06-22T15:16:34;76.80;;;44.40;;
11255;SDS011;5685;52.384;13.420;2023-06-22T15:19:36;75.90;;;44.23;;
11255;SDS011;5685;52.384;13.420;2023-06-22T15:22:39;75.83;;;44.50;;
11255;SDS011;5685;52.384;13.420;2023-06-22T15:25:41;74.93;;;44.37;;
11255;SDS011;5685;52.384;13.420;2023-06-22T15:28:44;75.70;;;44.40;;
11255;SDS011;5685;52.384;13.420;2023-06-22T15:31:48;75.50;;;44.27;;
11255;SDS011;5685;52.384;13.420;2023-06-22T15:34:51;74.80;;;44.30;;
11255;SDS011;5685;52.384;13.420;2023-06-22T15:37:53;74.87;;;44.30;;
11255;SDS011;5685;52.384;13.420;2023-06-22T15:40:56;74.77;;;44.13;;
11255;SDS011;5685;52.384;13.420;2023-06-22T15:43:59;74.97;;;44.10;;
11255;SDS011;5685;52.384;13.420;2023-06-22T15:47:03;75.67;;;44.40;;
11255;SDS011;5685;52.384;13.420;2023-06-22T15:50:06;76.10;;;44.27;;
11255;SDS011;5685;52.384;13.420;2023-06-22T15:53:09;75.23;;;43.83;;
11255;SDS011;5685;52.384;13.420;2023-06-22T15:56:11;76.63;;;44.37;;
11255;SDS011;5685;52.384;13.420;2023-06-22T15:59:16;76.70;;;44.53;;
11255;SDS011;5685;52.384;13.420;2023-06-22T16:02:20;76.37;;;44.33;;
11255;SDS011;5685;52.384;13.420;2023-06-22T16:05:23;75.73;;;44.10;;
11255;SDS011;5685;52.384;13.420;2023-06-22T16:08:25;76.53;;;44.53;;
11255;SDS011;5685;52.384;13.420;2023-06-22T16:11:31;75.57;;;44.03;;
11255;SDS011;5685;52.384;13.420;2023-06-22T16:14:34;76.00;;;44.27;;
11255;SDS011;5685;52.384;13.420;2023-06-22T16:17:39;75.60;;;44.10;;
11255;SDS011;5685;52.384;13.420;2023-06-22T16:20:42;75.23;;;43.83;;
11255;SDS011;5685;52.384;13.420;2023-06-22T16:23:46;75.83;;;44.10;;
11255;SDS011;5685;52.384;13.420;2023-06-22T16:26:48;75.63;;;44.03;;
11255;SDS011;5685;52.384;13.420;2023-06-22T16:29:51;75.40;;;43.87;;
11255;SDS011;5685;52.384;13.420;2023-06-22T16:32:55;75.87;;;44.17;;
11255;SDS011;5685;52.384;13.420;2023-06-22T16:35:58;76.03;;;44.17;;
11255;SDS011;5685;52.384;13.420;2023-06-22T16:39:01;76.23;;;44.27;;
11255;SDS011;5685;52.384;13.420;2023-06-22T16:42:04;75.97;;;44.17;;
11255;SDS011;5685;52.384;13.420;2023-06-22T16:45:07;75.70;;;44.10;;
11255;SDS011;5685;52.384;13.420;2023-06-22T16:48:11;75.70;;;44.13;;
11255;SDS011;5685;52.384;13.420;2023-06-22T16:51:14;75.70;;;44.07;;
11255;SDS011;5685;52.384;13.420;2023-06-22T16:54:17;76.40;;;44.43;;
11255;SDS011;5685;52.384;13.420;2023-06-22T16:57:19;76.13;;;44.43;;
11255;SDS011;5685;52.384;13.420;2023-06-22T17:00:22;76.10;;;44.53;;
11255;SDS011;5685;52.384;13.420;2023-06-22T17:03:27;74.90;;;43.70;;
11255;SDS011;5685;52.384;13.420;2023-06-22T17:06:31;75.83;;;44.23;;
11255;SDS011;5685;52.384;13.420;2023-06-22T17:09:34;76.10;;;44.27;;
11255;SDS011;5685;52.384;13.420;2023-06-22T17:12:39;76.30;;;44.40;;
11255;SDS011;5685;52.384;13.420;2023-06-22T17:15:42;76.17;;;44.40;;
11255;SDS011;5685;52.384;13.420;2023-06-22T17:18:46;76.13;;;44.33;;
11255;SDS011;5685;52.384;13.420;2023-06-22T17:21:49;75.83;;;44.33;;
11255;SDS011;5685;52.384;13.420;2023-06-22T17:24:52;76.33;;;44.40;;
11255;SDS011;5685;52.384;13.420;2023-06-22T17:27:58;76.13;;;44.40;;
11255;SDS011;5685;52.384;13.420;2023-06-22T17:31:08;76.20;;;44.43;;
11255;SDS011;5685;52.384;13.420;2023-06-22T17:34:13;75.77;;;44.03;;
11255;SDS011;5685;52.384;13.420;2023-06-22T17:37:16;75.60;;;44.17;;
11255;SDS011;5685;52.384;13.420;2023-06-22T17:40:19;75.97;;;44.27;;
11255;SDS011;5685;52.384;13.420;2023-06-22T17:43:23;76.33;;;44.37;;
11255;SDS011;5685;52.384;13.420;2023-06-22T17:46:30;76.17;;;44.30;;
11255;SDS011;5685;52.384;13.420;2023-06-22T17:49:37;76.33;;;44.50;;
11255;SDS011;5685;52.384;13.420;2023-06-22T17:52:40;75.70;;;44.00;;